MM48 weather

Ciudad Pemex Airport
Tabasco, Mexico

Public forecast

Using degrees Celsius for public forecast. Weather courtesy of forecast.io.

Closest aviation weather report (METAR) to Ciudad Pemex Airport

Report is more than 2 hours old.

Closest report is Carlos Rovirosa Pérez International Airport, 20.7 nm (38.4 km) WNW. Retrieved 2019/12/09 02:43 UTC (5 hours ago):

MMVA 090243Z 00000KT 7SM SKC 22/22 A3002 RMK SLP163 52012 990

Closest aviation forecast (TAF) to Ciudad Pemex Airport

Closest forecast is Carlos Rovirosa Pérez International Airport, 20.7 nm (38.4 km) WNW. Retrieved 2019/12/09 06:09 UTC (2 hours ago):

TAF MMVA 090502Z 0906/1006 06005KT 6SM HZ SKC FM091700 06010KT P6SM SCT020 FM100200 06005KT 6SM HZ SCT015